sensor_id;sensor_type;location;lat;lon;timestamp;P1;durP1;ratioP1;P2;durP2;ratioP2
1703;SDS011;849;48.780;9.216;2023-08-08T00:02:10;47.87;;;3.33;;
1703;SDS011;849;48.780;9.216;2023-08-08T00:04:41;47.83;;;3.20;;
1703;SDS011;849;48.780;9.216;2023-08-08T00:07:12;47.70;;;3.10;;
1703;SDS011;849;48.780;9.216;2023-08-08T00:09:43;47.90;;;3.20;;
1703;SDS011;849;48.780;9.216;2023-08-08T00:12:14;47.87;;;3.20;;
1703;SDS011;849;48.780;9.216;2023-08-08T00:14:44;47.60;;;3.10;;
1703;SDS011;849;48.780;9.216;2023-08-08T00:17:15;47.70;;;3.17;;
1703;SDS011;849;48.780;9.216;2023-08-08T00:19:46;47.70;;;3.33;;
1703;SDS011;849;48.780;9.216;2023-08-08T00:22:17;47.70;;;3.20;;
1703;SDS011;849;48.780;9.216;2023-08-08T00:24:47;47.70;;;3.20;;
1703;SDS011;849;48.780;9.216;2023-08-08T00:27:18;47.80;;;3.40;;
1703;SDS011;849;48.780;9.216;2023-08-08T00:29:49;47.80;;;3.17;;
1703;SDS011;849;48.780;9.216;2023-08-08T00:32:21;47.60;;;3.20;;
1703;SDS011;849;48.780;9.216;2023-08-08T00:34:51;47.80;;;3.47;;
1703;SDS011;849;48.780;9.216;2023-08-08T00:37:22;47.80;;;3.20;;
1703;SDS011;849;48.780;9.216;2023-08-08T00:39:53;47.70;;;3.50;;
1703;SDS011;849;48.780;9.216;2023-08-08T00:42:24;47.70;;;3.20;;
1703;SDS011;849;48.780;9.216;2023-08-08T00:44:55;47.77;;;3.57;;
1703;SDS011;849;48.780;9.216;2023-08-08T00:47:32;47.77;;;3.50;;
1703;SDS011;849;48.780;9.216;2023-08-08T00:50:03;47.60;;;3.40;;
1703;SDS011;849;48.780;9.216;2023-08-08T00:52:34;47.77;;;3.20;;
1703;SDS011;849;48.780;9.216;2023-08-08T00:55:07;47.60;;;3.20;;
1703;SDS011;849;48.780;9.216;2023-08-08T00:57:38;47.77;;;3.30;;
1703;SDS011;849;48.780;9.216;2023-08-08T01:00:10;47.50;;;3.20;;
1703;SDS011;849;48.780;9.216;2023-08-08T01:02:41;47.60;;;3.40;;
1703;SDS011;849;48.780;9.216;2023-08-08T01:05:12;47.80;;;3.40;;
1703;SDS011;849;48.780;9.216;2023-08-08T01:07:45;47.70;;;3.50;;
1703;SDS011;849;48.780;9.216;2023-08-08T01:10:25;47.63;;;3.17;;
1703;SDS011;849;48.780;9.216;2023-08-08T01:13:05;47.60;;;3.20;;
1703;SDS011;849;48.780;9.216;2023-08-08T01:15:40;47.80;;;3.60;;
1703;SDS011;849;48.780;9.216;2023-08-08T01:18:12;47.70;;;3.13;;
1703;SDS011;849;48.780;9.216;2023-08-08T01:20:45;47.60;;;3.47;;
1703;SDS011;849;48.780;9.216;2023-08-08T01:26:00;47.70;;;3.13;;
1703;SDS011;849;48.780;9.216;2023-08-08T01:28:33;47.60;;;3.20;;
1703;SDS011;849;48.780;9.216;2023-08-08T01:31:05;47.63;;;3.17;;
1703;SDS011;849;48.780;9.216;2023-08-08T01:33:36;47.87;;;3.53;;
1703;SDS011;849;48.780;9.216;2023-08-08T01:36:16;47.73;;;3.20;;
1703;SDS011;849;48.780;9.216;2023-08-08T01:38:55;47.77;;;3.30;;
1703;SDS011;849;48.780;9.216;2023-08-08T01:41:34;47.70;;;3.23;;
1703;SDS011;849;48.780;9.216;2023-08-08T01:44:08;47.80;;;3.70;;
1703;SDS011;849;48.780;9.216;2023-08-08T01:46:39;47.70;;;3.30;;
1703;SDS011;849;48.780;9.216;2023-08-08T01:49:10;47.70;;;3.63;;
1703;SDS011;849;48.780;9.216;2023-08-08T01:51:41;47.67;;;3.10;;
1703;SDS011;849;48.780;9.216;2023-08-08T01:54:12;47.60;;;3.50;;
1703;SDS011;849;48.780;9.216;2023-08-08T01:56:42;47.70;;;3.20;;
1703;SDS011;849;48.780;9.216;2023-08-08T01:59:13;47.70;;;3.30;;
1703;SDS011;849;48.780;9.216;2023-08-08T02:01:44;47.70;;;3.20;;
1703;SDS011;849;48.780;9.216;2023-08-08T02:04:15;47.60;;;3.20;;
1703;SDS011;849;48.780;9.216;2023-08-08T02:06:46;47.80;;;3.37;;
1703;SDS011;849;48.780;9.216;2023-08-08T02:09:16;47.63;;;3.20;;
1703;SDS011;849;48.780;9.216;2023-08-08T02:11:47;47.50;;;3.10;;
1703;SDS011;849;48.780;9.216;2023-08-08T02:14:18;47.67;;;3.20;;
1703;SDS011;849;48.780;9.216;2023-08-08T02:16:48;47.30;;;3.03;;
1703;SDS011;849;48.780;9.216;2023-08-08T02:19:19;47.77;;;3.53;;
1703;SDS011;849;48.780;9.216;2023-08-08T02:21:50;47.70;;;3.30;;
1703;SDS011;849;48.780;9.216;2023-08-08T02:24:21;47.87;;;3.30;;
1703;SDS011;849;48.780;9.216;2023-08-08T02:26:51;47.67;;;3.20;;
1703;SDS011;849;48.780;9.216;2023-08-08T02:29:17;47.73;;;3.10;;
1703;SDS011;849;48.780;9.216;2023-08-08T02:31:48;47.60;;;3.27;;
1703;SDS011;849;48.780;9.216;2023-08-08T02:34:14;47.60;;;3.20;;
1703;SDS011;849;48.780;9.216;2023-08-08T02:36:45;47.67;;;3.13;;
1703;SDS011;849;48.780;9.216;2023-08-08T02:39:16;47.60;;;3.10;;
1703;SDS011;849;48.780;9.216;2023-08-08T02:41:42;47.63;;;3.23;;
1703;SDS011;849;48.780;9.216;2023-08-08T02:44:13;47.50;;;3.10;;
1703;SDS011;849;48.780;9.216;2023-08-08T02:46:44;47.67;;;3.10;;
1703;SDS011;849;48.780;9.216;2023-08-08T02:49:14;47.77;;;3.13;;
1703;SDS011;849;48.780;9.216;2023-08-08T02:51:45;47.60;;;3.23;;
1703;SDS011;849;48.780;9.216;2023-08-08T02:54:16;47.67;;;3.40;;
1703;SDS011;849;48.780;9.216;2023-08-08T02:56:47;47.67;;;3.50;;
1703;SDS011;849;48.780;9.216;2023-08-08T02:59:18;47.67;;;3.30;;
1703;SDS011;849;48.780;9.216;2023-08-08T03:01:48;47.50;;;3.20;;
1703;SDS011;849;48.780;9.216;2023-08-08T03:04:14;47.50;;;3.23;;
1703;SDS011;849;48.780;9.216;2023-08-08T03:06:45;47.70;;;3.13;;
1703;SDS011;849;48.780;9.216;2023-08-08T03:09:16;47.60;;;3.20;;
1703;SDS011;849;48.780;9.216;2023-08-08T03:11:47;47.50;;;3.10;;
1703;SDS011;849;48.780;9.216;2023-08-08T03:14:18;47.60;;;3.10;;
1703;SDS011;849;48.780;9.216;2023-08-08T03:16:48;47.70;;;3.00;;
1703;SDS011;849;48.780;9.216;2023-08-08T03:19:20;47.60;;;2.83;;
1703;SDS011;849;48.780;9.216;2023-08-08T03:21:51;47.47;;;2.87;;
1703;SDS011;849;48.780;9.216;2023-08-08T03:24:22;47.60;;;3.00;;
1703;SDS011;849;48.780;9.216;2023-08-08T03:26:53;47.60;;;2.90;;
1703;SDS011;849;48.780;9.216;2023-08-08T03:29:24;47.60;;;2.97;;
1703;SDS011;849;48.780;9.216;2023-08-08T03:31:54;47.60;;;3.00;;
1703;SDS011;849;48.780;9.216;2023-08-08T03:34:25;47.60;;;3.20;;
1703;SDS011;849;48.780;9.216;2023-08-08T03:36:56;47.60;;;3.10;;
1703;SDS011;849;48.780;9.216;2023-08-08T03:39:27;47.70;;;3.40;;
1703;SDS011;849;48.780;9.216;2023-08-08T03:41:58;47.60;;;3.30;;
1703;SDS011;849;48.780;9.216;2023-08-08T03:44:29;47.70;;;3.50;;
1703;SDS011;849;48.780;9.216;2023-08-08T03:47:00;47.50;;;3.20;;
1703;SDS011;849;48.780;9.216;2023-08-08T03:49:30;47.70;;;3.50;;
1703;SDS011;849;48.780;9.216;2023-08-08T03:52:01;47.63;;;3.13;;
1703;SDS011;849;48.780;9.216;2023-08-08T03:54:32;47.67;;;3.60;;
1703;SDS011;849;48.780;9.216;2023-08-08T03:57:03;47.60;;;3.20;;
1703;SDS011;849;48.780;9.216;2023-08-08T03:59:34;47.60;;;3.23;;
1703;SDS011;849;48.780;9.216;2023-08-08T04:02:05;47.57;;;3.20;;
1703;SDS011;849;48.780;9.216;2023-08-08T04:04:36;47.60;;;3.20;;
1703;SDS011;849;48.780;9.216;2023-08-08T04:07:06;47.80;;;3.30;;
1703;SDS011;849;48.780;9.216;2023-08-08T04:09:37;47.70;;;3.50;;
1703;SDS011;849;48.780;9.216;2023-08-08T04:12:08;47.60;;;3.30;;
1703;SDS011;849;48.780;9.216;2023-08-08T04:14:39;47.63;;;3.20;;
1703;SDS011;849;48.780;9.216;2023-08-08T04:17:10;47.70;;;3.20;;
1703;SDS011;849;48.780;9.216;2023-08-08T04:19:40;47.70;;;3.27;;
1703;SDS011;849;48.780;9.216;2023-08-08T04:22:11;47.70;;;3.30;;
1703;SDS011;849;48.780;9.216;2023-08-08T04:24:42;47.70;;;3.40;;
1703;SDS011;849;48.780;9.216;2023-08-08T04:27:13;47.70;;;3.30;;
1703;SDS011;849;48.780;9.216;2023-08-08T04:29:44;47.70;;;3.20;;
1703;SDS011;849;48.780;9.216;2023-08-08T04:32:15;47.50;;;3.07;;
1703;SDS011;849;48.780;9.216;2023-08-08T04:34:45;47.77;;;3.37;;
1703;SDS011;849;48.780;9.216;2023-08-08T04:37:16;47.67;;;3.23;;
1703;SDS011;849;48.780;9.216;2023-08-08T04:39:47;47.60;;;3.10;;
1703;SDS011;849;48.780;9.216;2023-08-08T04:42:18;47.50;;;3.00;;
1703;SDS011;849;48.780;9.216;2023-08-08T04:44:48;47.70;;;3.33;;
1703;SDS011;849;48.780;9.216;2023-08-08T04:47:19;47.70;;;3.30;;
1703;SDS011;849;48.780;9.216;2023-08-08T04:49:50;47.60;;;3.37;;
1703;SDS011;849;48.780;9.216;2023-08-08T04:52:21;47.70;;;3.20;;
1703;SDS011;849;48.780;9.216;2023-08-08T04:54:52;47.80;;;3.40;;
1703;SDS011;849;48.780;9.216;2023-08-08T04:57:22;47.50;;;3.10;;
1703;SDS011;849;48.780;9.216;2023-08-08T04:59:53;47.60;;;3.37;;
1703;SDS011;849;48.780;9.216;2023-08-08T05:02:24;47.60;;;3.20;;
1703;SDS011;849;48.780;9.216;2023-08-08T05:04:55;47.60;;;3.50;;
1703;SDS011;849;48.780;9.216;2023-08-08T05:07:26;47.67;;;3.30;;
1703;SDS011;849;48.780;9.216;2023-08-08T05:09:57;47.70;;;3.30;;
1703;SDS011;849;48.780;9.216;2023-08-08T05:12:28;47.73;;;3.27;;
1703;SDS011;849;48.780;9.216;2023-08-08T05:14:59;47.60;;;3.00;;
1703;SDS011;849;48.780;9.216;2023-08-08T05:17:30;47.70;;;3.60;;
1703;SDS011;849;48.780;9.216;2023-08-08T05:20:02;47.67;;;3.10;;
1703;SDS011;849;48.780;9.216;2023-08-08T05:22:34;47.77;;;3.40;;
1703;SDS011;849;48.780;9.216;2023-08-08T05:25:04;47.70;;;3.20;;
1703;SDS011;849;48.780;9.216;2023-08-08T05:27:36;47.60;;;3.40;;
1703;SDS011;849;48.780;9.216;2023-08-08T05:30:07;47.60;;;3.20;;
1703;SDS011;849;48.780;9.216;2023-08-08T05:32:38;47.70;;;3.40;;
1703;SDS011;849;48.780;9.216;2023-08-08T05:35:08;47.60;;;3.30;;
1703;SDS011;849;48.780;9.216;2023-08-08T05:37:39;47.80;;;3.33;;
1703;SDS011;849;48.780;9.216;2023-08-08T05:40:10;47.57;;;3.20;;
1703;SDS011;849;48.780;9.216;2023-08-08T05:42:41;47.40;;;3.17;;
1703;SDS011;849;48.780;9.216;2023-08-08T05:45:07;47.60;;;3.40;;
1703;SDS011;849;48.780;9.216;2023-08-08T05:47:38;47.60;;;3.20;;
1703;SDS011;849;48.780;9.216;2023-08-08T05:50:09;47.60;;;3.30;;
1703;SDS011;849;48.780;9.216;2023-08-08T05:52:40;47.57;;;3.20;;
1703;SDS011;849;48.780;9.216;2023-08-08T05:55:11;47.70;;;3.20;;
1703;SDS011;849;48.780;9.216;2023-08-08T05:57:41;47.80;;;3.10;;
1703;SDS011;849;48.780;9.216;2023-08-08T06:00:12;47.70;;;3.20;;
1703;SDS011;849;48.780;9.216;2023-08-08T06:02:43;47.80;;;3.40;;
1703;SDS011;849;48.780;9.216;2023-08-08T06:05:15;47.60;;;3.20;;
1703;SDS011;849;48.780;9.216;2023-08-08T06:07:47;47.67;;;3.30;;
1703;SDS011;849;48.780;9.216;2023-08-08T06:10:18;47.67;;;3.10;;
1703;SDS011;849;48.780;9.216;2023-08-08T06:12:48;47.70;;;3.23;;
1703;SDS011;849;48.780;9.216;2023-08-08T06:15:19;47.70;;;3.23;;
1703;SDS011;849;48.780;9.216;2023-08-08T06:17:50;47.57;;;3.10;;
1703;SDS011;849;48.780;9.216;2023-08-08T06:20:21;47.70;;;2.90;;
1703;SDS011;849;48.780;9.216;2023-08-08T06:22:52;47.60;;;3.00;;
1703;SDS011;849;48.780;9.216;2023-08-08T06:25:22;47.40;;;3.00;;
1703;SDS011;849;48.780;9.216;2023-08-08T06:27:53;47.50;;;3.00;;
1703;SDS011;849;48.780;9.216;2023-08-08T06:30:24;47.70;;;3.10;;
1703;SDS011;849;48.780;9.216;2023-08-08T06:32:55;47.50;;;2.80;;
1703;SDS011;849;48.780;9.216;2023-08-08T06:35:26;47.60;;;3.10;;
1703;SDS011;849;48.780;9.216;2023-08-08T06:37:56;47.67;;;3.20;;
1703;SDS011;849;48.780;9.216;2023-08-08T06:40:27;47.60;;;2.90;;
1703;SDS011;849;48.780;9.216;2023-08-08T06:42:58;47.40;;;3.03;;
1703;SDS011;849;48.780;9.216;2023-08-08T06:45:29;47.57;;;3.10;;
1703;SDS011;849;48.780;9.216;2023-08-08T06:48:00;47.50;;;2.90;;
1703;SDS011;849;48.780;9.216;2023-08-08T06:50:30;47.70;;;3.60;;
1703;SDS011;849;48.780;9.216;2023-08-08T06:53:02;47.60;;;3.07;;
1703;SDS011;849;48.780;9.216;2023-08-08T06:55:33;47.60;;;3.30;;
1703;SDS011;849;48.780;9.216;2023-08-08T06:58:04;47.60;;;3.00;;
1703;SDS011;849;48.780;9.216;2023-08-08T07:00:35;47.60;;;3.30;;
1703;SDS011;849;48.780;9.216;2023-08-08T07:03:06;47.50;;;3.10;;
1703;SDS011;849;48.780;9.216;2023-08-08T07:05:36;47.70;;;3.20;;
1703;SDS011;849;48.780;9.216;2023-08-08T07:08:09;47.60;;;3.40;;
1703;SDS011;849;48.780;9.216;2023-08-08T07:10:40;47.60;;;3.37;;
1703;SDS011;849;48.780;9.216;2023-08-08T07:13:11;47.50;;;3.30;;
1703;SDS011;849;48.780;9.216;2023-08-08T07:15:41;47.67;;;3.20;;
1703;SDS011;849;48.780;9.216;2023-08-08T07:18:12;47.50;;;3.00;;
1703;SDS011;849;48.780;9.216;2023-08-08T07:20:43;47.60;;;3.20;;
1703;SDS011;849;48.780;9.216;2023-08-08T07:23:14;47.40;;;2.90;;
1703;SDS011;849;48.780;9.216;2023-08-08T07:25:45;47.60;;;3.13;;
1703;SDS011;849;48.780;9.216;2023-08-08T07:28:17;47.80;;;2.90;;
1703;SDS011;849;48.780;9.216;2023-08-08T07:30:48;47.60;;;3.10;;
1703;SDS011;849;48.780;9.216;2023-08-08T07:33:18;47.50;;;2.90;;
1703;SDS011;849;48.780;9.216;2023-08-08T07:35:49;47.50;;;3.00;;
1703;SDS011;849;48.780;9.216;2023-08-08T07:38:20;47.67;;;3.30;;
1703;SDS011;849;48.780;9.216;2023-08-08T07:40:50;47.70;;;3.10;;
1703;SDS011;849;48.780;9.216;2023-08-08T07:43:21;47.50;;;3.10;;
1703;SDS011;849;48.780;9.216;2023-08-08T07:45:52;47.63;;;3.10;;
1703;SDS011;849;48.780;9.216;2023-08-08T07:48:23;47.50;;;3.30;;
1703;SDS011;849;48.780;9.216;2023-08-08T07:50:54;47.67;;;3.00;;
1703;SDS011;849;48.780;9.216;2023-08-08T07:53:24;47.60;;;3.20;;
1703;SDS011;849;48.780;9.216;2023-08-08T07:55:55;47.60;;;3.20;;
1703;SDS011;849;48.780;9.216;2023-08-08T07:58:26;47.27;;;3.20;;
1703;SDS011;849;48.780;9.216;2023-08-08T08:00:57;47.20;;;3.00;;
1703;SDS011;849;48.780;9.216;2023-08-08T08:03:29;47.50;;;3.10;;
1703;SDS011;849;48.780;9.216;2023-08-08T08:05:59;47.57;;;3.10;;
1703;SDS011;849;48.780;9.216;2023-08-08T08:08:30;47.60;;;3.00;;
1703;SDS011;849;48.780;9.216;2023-08-08T08:11:02;47.60;;;3.20;;
1703;SDS011;849;48.780;9.216;2023-08-08T08:13:32;47.50;;;3.10;;
1703;SDS011;849;48.780;9.216;2023-08-08T08:16:03;47.60;;;3.20;;
1703;SDS011;849;48.780;9.216;2023-08-08T08:18:34;47.73;;;3.00;;
1703;SDS011;849;48.780;9.216;2023-08-08T08:21:05;47.63;;;2.90;;
1703;SDS011;849;48.780;9.216;2023-08-08T08:23:36;47.77;;;3.10;;
1703;SDS011;849;48.780;9.216;2023-08-08T08:26:06;47.60;;;3.30;;
1703;SDS011;849;48.780;9.216;2023-08-08T08:28:37;47.60;;;3.30;;
1703;SDS011;849;48.780;9.216;2023-08-08T08:31:10;47.67;;;3.20;;
1703;SDS011;849;48.780;9.216;2023-08-08T08:33:41;47.90;;;3.60;;
1703;SDS011;849;48.780;9.216;2023-08-08T08:36:12;47.50;;;3.40;;
1703;SDS011;849;48.780;9.216;2023-08-08T08:38:43;47.50;;;3.63;;
1703;SDS011;849;48.780;9.216;2023-08-08T08:41:15;47.83;;;3.40;;
1703;SDS011;849;48.780;9.216;2023-08-08T08:43:49;47.50;;;3.40;;
1703;SDS011;849;48.780;9.216;2023-08-08T08:46:21;47.27;;;3.30;;
1703;SDS011;849;48.780;9.216;2023-08-08T08:48:53;47.40;;;3.60;;
1703;SDS011;849;48.780;9.216;2023-08-08T08:51:26;47.60;;;3.37;;
1703;SDS011;849;48.780;9.216;2023-08-08T08:53:58;47.60;;;3.50;;
1703;SDS011;849;48.780;9.216;2023-08-08T08:56:28;47.50;;;3.47;;
1703;SDS011;849;48.780;9.216;2023-08-08T08:59:00;47.70;;;3.43;;
1703;SDS011;849;48.780;9.216;2023-08-08T09:01:31;47.60;;;3.10;;
1703;SDS011;849;48.780;9.216;2023-08-08T09:04:02;47.27;;;3.27;;
1703;SDS011;849;48.780;9.216;2023-08-08T09:06:35;47.47;;;3.10;;
1703;SDS011;849;48.780;9.216;2023-08-08T09:09:08;47.60;;;2.97;;
1703;SDS011;849;48.780;9.216;2023-08-08T09:11:39;47.30;;;3.00;;
1703;SDS011;849;48.780;9.216;2023-08-08T09:14:21;47.40;;;3.00;;
1703;SDS011;849;48.780;9.216;2023-08-08T09:16:53;47.40;;;3.10;;
1703;SDS011;849;48.780;9.216;2023-08-08T09:19:24;47.90;;;3.23;;
1703;SDS011;849;48.780;9.216;2023-08-08T09:21:55;47.60;;;3.40;;
1703;SDS011;849;48.780;9.216;2023-08-08T09:24:25;47.80;;;3.20;;
1703;SDS011;849;48.780;9.216;2023-08-08T09:26:56;47.50;;;3.33;;
1703;SDS011;849;48.780;9.216;2023-08-08T09:29:27;47.57;;;3.30;;
1703;SDS011;849;48.780;9.216;2023-08-08T09:31:58;47.60;;;3.10;;
1703;SDS011;849;48.780;9.216;2023-08-08T09:34:29;47.50;;;3.30;;
1703;SDS011;849;48.780;9.216;2023-08-08T09:36:59;47.70;;;3.20;;
1703;SDS011;849;48.780;9.216;2023-08-08T09:39:30;47.40;;;3.20;;
1703;SDS011;849;48.780;9.216;2023-08-08T09:42:02;47.50;;;3.23;;
1703;SDS011;849;48.780;9.216;2023-08-08T09:44:34;47.77;;;3.50;;
1703;SDS011;849;48.780;9.216;2023-08-08T09:47:05;47.67;;;3.27;;
1703;SDS011;849;48.780;9.216;2023-08-08T09:49:36;47.60;;;3.60;;
1703;SDS011;849;48.780;9.216;2023-08-08T09:52:07;47.07;;;3.30;;
1703;SDS011;849;48.780;9.216;2023-08-08T09:54:39;47.70;;;3.60;;
1703;SDS011;849;48.780;9.216;2023-08-08T09:57:11;47.60;;;3.00;;
1703;SDS011;849;48.780;9.216;2023-08-08T09:59:42;47.60;;;3.13;;
1703;SDS011;849;48.780;9.216;2023-08-08T10:02:14;47.50;;;3.27;;
1703;SDS011;849;48.780;9.216;2023-08-08T10:04:46;47.60;;;3.07;;
1703;SDS011;849;48.780;9.216;2023-08-08T10:07:17;47.20;;;3.20;;
1703;SDS011;849;48.780;9.216;2023-08-08T10:09:48;47.67;;;3.30;;
1703;SDS011;849;48.780;9.216;2023-08-08T10:12:19;47.50;;;3.20;;
1703;SDS011;849;48.780;9.216;2023-08-08T10:14:50;47.53;;;2.90;;
1703;SDS011;849;48.780;9.216;2023-08-08T10:17:21;46.87;;;3.00;;
1703;SDS011;849;48.780;9.216;2023-08-08T10:19:55;47.50;;;3.13;;
1703;SDS011;849;48.780;9.216;2023-08-08T10:22:27;47.20;;;3.00;;
1703;SDS011;849;48.780;9.216;2023-08-08T10:24:58;47.50;;;2.90;;
1703;SDS011;849;48.780;9.216;2023-08-08T10:27:34;47.20;;;2.80;;
1703;SDS011;849;48.780;9.216;2023-08-08T10:30:07;47.60;;;3.47;;
1703;SDS011;849;48.780;9.216;2023-08-08T10:32:43;47.87;;;3.77;;
1703;SDS011;849;48.780;9.216;2023-08-08T10:35:16;47.60;;;3.07;;
1703;SDS011;849;48.780;9.216;2023-08-08T10:37:54;47.50;;;3.30;;
1703;SDS011;849;48.780;9.216;2023-08-08T10:40:33;47.60;;;3.20;;
1703;SDS011;849;48.780;9.216;2023-08-08T10:43:09;47.53;;;3.17;;
1703;SDS011;849;48.780;9.216;2023-08-08T10:45:42;47.30;;;3.10;;
1703;SDS011;849;48.780;9.216;2023-08-08T10:48:14;47.40;;;3.07;;
1703;SDS011;849;48.780;9.216;2023-08-08T10:50:46;47.50;;;3.10;;
1703;SDS011;849;48.780;9.216;2023-08-08T10:53:17;47.50;;;3.23;;
1703;SDS011;849;48.780;9.216;2023-08-08T10:55:56;47.30;;;2.97;;
1703;SDS011;849;48.780;9.216;2023-08-08T10:58:40;47.50;;;3.30;;
1703;SDS011;849;48.780;9.216;2023-08-08T11:01:12;47.30;;;3.10;;
1703;SDS011;849;48.780;9.216;2023-08-08T11:03:44;47.20;;;3.43;;
1703;SDS011;849;48.780;9.216;2023-08-08T11:06:16;47.20;;;3.10;;
1703;SDS011;849;48.780;9.216;2023-08-08T11:08:47;47.30;;;3.00;;
1703;SDS011;849;48.780;9.216;2023-08-08T11:11:18;46.77;;;3.20;;
1703;SDS011;849;48.780;9.216;2023-08-08T11:13:51;46.83;;;2.87;;
1703;SDS011;849;48.780;9.216;2023-08-08T11:16:22;46.97;;;3.10;;
1703;SDS011;849;48.780;9.216;2023-08-08T11:18:55;47.20;;;2.97;;
1703;SDS011;849;48.780;9.216;2023-08-08T11:21:26;47.30;;;3.00;;
1703;SDS011;849;48.780;9.216;2023-08-08T11:23:57;47.30;;;3.10;;
1703;SDS011;849;48.780;9.216;2023-08-08T11:26:28;47.30;;;3.00;;
1703;SDS011;849;48.780;9.216;2023-08-08T11:29:02;47.00;;;3.00;;
1703;SDS011;849;48.780;9.216;2023-08-08T11:31:36;46.87;;;3.60;;
1703;SDS011;849;48.780;9.216;2023-08-08T11:34:07;47.40;;;3.10;;
1703;SDS011;849;48.780;9.216;2023-08-08T11:36:40;47.57;;;2.90;;
1703;SDS011;849;48.780;9.216;2023-08-08T11:39:11;47.57;;;3.03;;
1703;SDS011;849;48.780;9.216;2023-08-08T11:41:42;47.20;;;3.10;;
1703;SDS011;849;48.780;9.216;2023-08-08T11:44:13;47.10;;;2.90;;
1703;SDS011;849;48.780;9.216;2023-08-08T11:46:44;47.30;;;2.93;;
1703;SDS011;849;48.780;9.216;2023-08-08T11:49:16;47.00;;;3.00;;
1703;SDS011;849;48.780;9.216;2023-08-08T11:51:47;46.67;;;2.80;;
1703;SDS011;849;48.780;9.216;2023-08-08T11:54:18;47.30;;;3.00;;
1703;SDS011;849;48.780;9.216;2023-08-08T11:56:49;47.40;;;2.97;;
1703;SDS011;849;48.780;9.216;2023-08-08T11:59:20;46.80;;;2.87;;
1703;SDS011;849;48.780;9.216;2023-08-08T12:01:51;47.30;;;3.00;;
1703;SDS011;849;48.780;9.216;2023-08-08T12:04:22;47.40;;;3.60;;
1703;SDS011;849;48.780;9.216;2023-08-08T12:07:02;47.30;;;4.90;;
1703;SDS011;849;48.780;9.216;2023-08-08T12:09:33;47.10;;;3.20;;
1703;SDS011;849;48.780;9.216;2023-08-08T12:12:05;46.60;;;3.23;;
1703;SDS011;849;48.780;9.216;2023-08-08T12:14:39;46.77;;;2.87;;
1703;SDS011;849;48.780;9.216;2023-08-08T12:17:11;47.00;;;2.70;;
1703;SDS011;849;48.780;9.216;2023-08-08T12:19:45;47.20;;;3.20;;
1703;SDS011;849;48.780;9.216;2023-08-08T12:22:17;46.77;;;3.00;;
1703;SDS011;849;48.780;9.216;2023-08-08T12:24:48;47.10;;;3.10;;
1703;SDS011;849;48.780;9.216;2023-08-08T12:27:19;47.50;;;3.30;;
1703;SDS011;849;48.780;9.216;2023-08-08T12:29:50;47.50;;;3.10;;
1703;SDS011;849;48.780;9.216;2023-08-08T12:32:22;46.67;;;3.00;;
1703;SDS011;849;48.780;9.216;2023-08-08T12:34:57;47.07;;;3.10;;
1703;SDS011;849;48.780;9.216;2023-08-08T12:37:27;47.50;;;3.00;;
1703;SDS011;849;48.780;9.216;2023-08-08T12:39:58;47.60;;;3.00;;
1703;SDS011;849;48.780;9.216;2023-08-08T12:42:29;47.50;;;3.10;;
1703;SDS011;849;48.780;9.216;2023-08-08T12:45:00;46.77;;;3.13;;
1703;SDS011;849;48.780;9.216;2023-08-08T12:47:31;47.30;;;3.20;;
1703;SDS011;849;48.780;9.216;2023-08-08T12:50:03;47.40;;;3.10;;
1703;SDS011;849;48.780;9.216;2023-08-08T12:52:34;47.07;;;3.27;;
1703;SDS011;849;48.780;9.216;2023-08-08T12:55:06;46.60;;;2.80;;
1703;SDS011;849;48.780;9.216;2023-08-08T12:57:37;47.27;;;3.23;;
1703;SDS011;849;48.780;9.216;2023-08-08T13:00:09;46.87;;;3.10;;
1703;SDS011;849;48.780;9.216;2023-08-08T13:02:40;47.40;;;3.00;;
1703;SDS011;849;48.780;9.216;2023-08-08T13:05:11;47.27;;;3.17;;
1703;SDS011;849;48.780;9.216;2023-08-08T13:07:42;47.20;;;3.57;;
1703;SDS011;849;48.780;9.216;2023-08-08T13:10:13;46.90;;;3.30;;
1703;SDS011;849;48.780;9.216;2023-08-08T13:12:44;47.20;;;3.03;;
1703;SDS011;849;48.780;9.216;2023-08-08T13:15:14;47.50;;;3.20;;
1703;SDS011;849;48.780;9.216;2023-08-08T13:17:45;47.60;;;3.20;;
1703;SDS011;849;48.780;9.216;2023-08-08T13:20:16;46.80;;;3.00;;
1703;SDS011;849;48.780;9.216;2023-08-08T13:22:47;47.50;;;3.50;;
1703;SDS011;849;48.780;9.216;2023-08-08T13:25:17;47.40;;;3.20;;
1703;SDS011;849;48.780;9.216;2023-08-08T13:27:51;46.83;;;3.10;;
1703;SDS011;849;48.780;9.216;2023-08-08T13:30:22;47.30;;;3.20;;
1703;SDS011;849;48.780;9.216;2023-08-08T13:32:53;46.80;;;3.17;;
1703;SDS011;849;48.780;9.216;2023-08-08T13:35:24;47.40;;;3.00;;
1703;SDS011;849;48.780;9.216;2023-08-08T13:37:55;47.33;;;3.10;;
1703;SDS011;849;48.780;9.216;2023-08-08T13:40:26;47.20;;;3.20;;
1703;SDS011;849;48.780;9.216;2023-08-08T13:42:56;46.47;;;2.90;;
1703;SDS011;849;48.780;9.216;2023-08-08T13:45:27;46.90;;;3.20;;
1703;SDS011;849;48.780;9.216;2023-08-08T13:47:58;47.37;;;2.80;;
1703;SDS011;849;48.780;9.216;2023-08-08T13:50:29;47.30;;;3.10;;
1703;SDS011;849;48.780;9.216;2023-08-08T13:53:00;47.03;;;3.03;;
1703;SDS011;849;48.780;9.216;2023-08-08T13:55:30;47.13;;;3.00;;
1703;SDS011;849;48.780;9.216;2023-08-08T13:58:02;47.30;;;3.00;;
1703;SDS011;849;48.780;9.216;2023-08-08T14:00:33;47.00;;;3.00;;
1703;SDS011;849;48.780;9.216;2023-08-08T14:03:04;47.10;;;2.90;;
1703;SDS011;849;48.780;9.216;2023-08-08T14:05:35;47.00;;;3.00;;
1703;SDS011;849;48.780;9.216;2023-08-08T14:08:08;46.90;;;2.90;;
1703;SDS011;849;48.780;9.216;2023-08-08T14:10:40;46.63;;;3.03;;
1703;SDS011;849;48.780;9.216;2023-08-08T14:13:10;47.27;;;2.83;;
1703;SDS011;849;48.780;9.216;2023-08-08T14:15:41;47.70;;;3.50;;
1703;SDS011;849;48.780;9.216;2023-08-08T14:18:12;47.17;;;3.00;;
1703;SDS011;849;48.780;9.216;2023-08-08T14:20:43;47.10;;;3.20;;
1703;SDS011;849;48.780;9.216;2023-08-08T14:23:14;46.70;;;2.90;;
1703;SDS011;849;48.780;9.216;2023-08-08T14:25:45;47.20;;;3.20;;
1703;SDS011;849;48.780;9.216;2023-08-08T14:28:15;46.80;;;3.10;;
1703;SDS011;849;48.780;9.216;2023-08-08T14:30:46;47.40;;;3.10;;
1703;SDS011;849;48.780;9.216;2023-08-08T14:33:17;47.07;;;3.47;;
1703;SDS011;849;48.780;9.216;2023-08-08T14:35:48;47.20;;;3.20;;
1703;SDS011;849;48.780;9.216;2023-08-08T14:38:23;47.10;;;2.90;;
1703;SDS011;849;48.780;9.216;2023-08-08T14:40:54;47.20;;;3.00;;
1703;SDS011;849;48.780;9.216;2023-08-08T14:43:26;47.60;;;3.20;;
1703;SDS011;849;48.780;9.216;2023-08-08T14:45:57;47.13;;;2.83;;
1703;SDS011;849;48.780;9.216;2023-08-08T14:48:28;47.30;;;3.03;;
1703;SDS011;849;48.780;9.216;2023-08-08T14:50:59;46.70;;;2.93;;
1703;SDS011;849;48.780;9.216;2023-08-08T14:53:31;47.40;;;2.97;;
1703;SDS011;849;48.780;9.216;2023-08-08T14:56:02;47.30;;;2.87;;
1703;SDS011;849;48.780;9.216;2023-08-08T14:58:33;47.10;;;2.80;;
1703;SDS011;849;48.780;9.216;2023-08-08T15:01:05;47.00;;;3.03;;
1703;SDS011;849;48.780;9.216;2023-08-08T15:03:35;47.13;;;2.90;;
1703;SDS011;849;48.780;9.216;2023-08-08T15:06:06;47.30;;;2.83;;
1703;SDS011;849;48.780;9.216;2023-08-08T15:08:37;47.50;;;3.00;;
1703;SDS011;849;48.780;9.216;2023-08-08T15:11:08;47.40;;;3.00;;
1703;SDS011;849;48.780;9.216;2023-08-08T15:13:39;47.20;;;3.00;;
1703;SDS011;849;48.780;9.216;2023-08-08T15:16:10;47.40;;;3.10;;
1703;SDS011;849;48.780;9.216;2023-08-08T15:18:40;46.90;;;2.90;;
1703;SDS011;849;48.780;9.216;2023-08-08T15:21:11;47.30;;;3.00;;
1703;SDS011;849;48.780;9.216;2023-08-08T15:23:43;47.30;;;2.93;;
1703;SDS011;849;48.780;9.216;2023-08-08T15:26:14;47.23;;;3.10;;
1703;SDS011;849;48.780;9.216;2023-08-08T15:28:50;46.60;;;2.90;;
1703;SDS011;849;48.780;9.216;2023-08-08T15:31:21;47.30;;;3.33;;
1703;SDS011;849;48.780;9.216;2023-08-08T15:33:52;46.90;;;3.30;;
1703;SDS011;849;48.780;9.216;2023-08-08T15:36:22;47.30;;;3.13;;
1703;SDS011;849;48.780;9.216;2023-08-08T15:38:53;47.27;;;3.10;;
1703;SDS011;849;48.780;9.216;2023-08-08T15:41:24;47.03;;;2.80;;
1703;SDS011;849;48.780;9.216;2023-08-08T15:43:55;47.27;;;3.27;;